Ballycanew, Ireland
Current Conditions -  °F | °C
As of 8:30 AM on Monday 20 Oct 2014 (Local Time) from EIWF Reporting Station
Scattered Clouds Scattered Clouds  
Wind Chill: 52°   Ceiling: Unl
Heat Index: 52°   Visibility: 6mi
Dew Point: 50°   Wind: 7mph
Humidity: 94%   Direction: 270°W
Pressure: 29.97"   Gusts: NA
Location:  52.61°N, 6.31°W
Report Text: EIWF 200830Z 27006KT 230V310 9999 SCT030 11/10 Q1015 R21/1/////
Loading
Personal Weather Stations






























Interactive Weather Map
Tropical Storm Tracking
New forecast layout! Learn more

10-Day Weather Forecast

Advertisements
Track Severe Weather on mobile